• Join FlightAware (Why Join?)
  • Login
  • US Flag 
10:35AM EDT


 

Airport Tracker/Info


-or-


 

Live Flight TrackerFlight Track Log ✈ ASQ5678 ✈ 10-May-2013 ✈ KMKE - KCLL

Flight Track Log - Related Links

Times and Time Zones

All times are in EDT time to prevent confusion due to time zone crossing. See the ASQ5678 flight status page for this flight to view local times or setup timezone preferences in your user account.

Time Position Orientation Groundspeed Altitude Reporting Facility
EDT Latitude Longitude Course Direction KTS MPH feet Rate Location/Type
09:06AM 42.9667 -87.9000 251° West 142 163 1,500  Level KMKE
09:08AM 43.0683 -87.9811 330° Northwest 215 247 6,800 2,100 Climbing Chicago Center
09:09AM 43.0481 -88.0661 252° West 253 291 8,900 1,980 Climbing Chicago Center
09:10AM 42.9192 -88.5827 249° West  Level FlightAware Approximate
09:10AM 43.0058 -88.1533 237° Southwest 272 313 10,900  Level Chicago Center
09:11AM 42.8839 -88.7147 251° West  Level FlightAware Approximate
09:11AM 42.9908 -88.2839 261° West 304 350 12,800  Level Chicago Center
09:12AM 42.9867 -88.4067 267° West 321 369 14,400 1,500 Climbing Chicago Center
09:13AM 42.9822 -88.5353 267° West 334 384 15,900 1,440 Climbing Chicago Center
09:14AM 42.9775 -88.6681 267° West 345 397 17,400 1,440 Climbing Chicago Center
09:16AM 42.9747 -88.8019 268° West 351 404 18,900 1,440 Climbing Chicago Center
09:17AM 42.9747 -88.9381 270° West 357 411 20,400 1,440 Climbing Chicago Center
09:18AM 42.9750 -89.0761 270° West 362 417 21,900 1,560 Climbing Chicago Center
09:19AM 42.9742 -89.2372 270° West 365 420 23,700 1,500 Climbing Chicago Center
09:20AM 42.9733 -89.3747 270° West 364 419 25,100 1,380 Climbing Chicago Center
09:21AM 42.9719 -89.5108 269° West 361 415 26,600 1,440 Climbing Chicago Center
09:22AM 42.9714 -89.6453 270° West 355 409 28,100 1,440 Climbing Chicago Center
09:23AM 42.9725 -89.7769 271° West 350 403 29,600 1,200 Climbing Chicago Center
09:24AM 42.9736 -89.9208 271° West 347 399 30,600 960 Climbing Chicago Center
09:25AM 42.9753 -90.0528 271° West 351 404 31,700 1,140 Climbing Chicago Center
09:26AM 42.9758 -90.1850 270° West 351 404 33,000 1,080 Climbing Chicago Center
09:27AM 42.9506 -90.3042 254° West 340 391 34,000 480 Climbing Chicago Center
09:28AM 42.8486 -90.3950 213° Southwest 366 421 34,000  Level Chicago Center
09:29AM 42.7589 -90.4733 213° Southwest 382 440 34,000  Level Chicago Center
09:30AM 42.6672 -90.5489 211° Southwest 385 443 34,000  Level Chicago Center
09:31AM 42.5764 -90.6261 212° Southwest 386 444 34,000  Level Chicago Center
09:32AM 42.4839 -90.7044 212° Southwest 391 450 34,000  Level Chicago Center
09:33AM 42.3919 -90.7811 212° Southwest 391 450 34,000  Level Chicago Center
09:34AM 42.2808 -90.8736 212° Southwest 392 451 34,000  Level Chicago Center
09:35AM 42.1869 -90.9514 212° Southwest 397 457 34,000  Level Chicago Center
09:36AM 42.0928 -91.0300 212° Southwest 399 459 34,000  Level Chicago Center
09:37AM 41.9986 -91.1083 212° Southwest 402 463 34,000  Level Chicago Center
09:38AM 41.9050 -91.1844 211° Southwest 398 458 34,000  Level Chicago Center
09:39AM 41.7922 -91.2764 211° Southwest 398 458 34,000  Level Chicago Center
09:40AM 41.6981 -91.3531 211° Southwest 398 458 34,000  Level Chicago Center
09:41AM 41.6039 -91.4289 211° Southwest 398 458 34,000  Level Chicago Center
09:42AM 41.5108 -91.5061 212° Southwest 399 459 34,000  Level Chicago Center
09:43AM 41.4172 -91.5806 211° Southwest 395 455 34,000  Level Chicago Center
09:44AM 41.3047 -91.6714 211° Southwest 398 458 34,000  Level Chicago Center
09:46AM 41.2147 -91.7408 210° Southwest 396 456 34,000  Level Chicago Center
09:47AM 41.1219 -91.8164 212° Southwest 395 455 34,000  Level Chicago Center
09:48AM 41.0275 -91.8903 211° Southwest 396 456 34,000  Level Chicago Center
09:49AM 40.9158 -91.9803 211° Southwest 395 455 34,000  Level Chicago Center
09:50AM 40.8219 -92.0533 210° Southwest 396 456 34,000  Level Chicago Center
09:51AM 40.7286 -92.1283 211° Southwest 396 456 34,000  Level Chicago Center
09:52AM 40.6358 -92.2022 211° Southwest 393 452 34,000  Level Chicago Center
09:53AM 40.5606 -92.2617 211° Southwest 394 453 34,000  Level Kansas City Center
09:54AM 40.4683 -92.3331 211° Southwest 389 448 34,000  Level Kansas City Center
09:55AM 40.3758 -92.4056 211° Southwest 387 445 34,000  Level Kansas City Center
09:56AM 40.2653 -92.4906 210° Southwest 384 442 34,000  Level Kansas City Center
09:57AM 40.1769 -92.5606 211° Southwest 385 443 34,000  Level Kansas City Center
09:58AM 40.0906 -92.6361 214° Southwest 389 448 34,000  Level Kansas City Center
09:59AM 39.9967 -92.7367 219° Southwest 388 447 34,000  Level Kansas City Center
10:00AM 39.9122 -92.8247 219° Southwest 390 449 34,000  Level Kansas City Center
10:01AM 39.8281 -92.9136 219° Southwest 391 450 34,000  Level Kansas City Center
10:02AM 39.7425 -93.0011 218° Southwest 393 452 34,000  Level Kansas City Center
10:03AM 39.6572 -93.0892 218° Southwest 393 452 34,000  Level Kansas City Center
10:04AM 39.5567 -93.1947 219° Southwest 392 451 34,000  Level Kansas City Center
10:05AM 39.4714 -93.2819 218° Southwest 391 450 34,000  Level Kansas City Center
10:06AM 39.3869 -93.3683 218° Southwest 390 449 34,000  Level Kansas City Center
10:07AM 39.3039 -93.4553 219° Southwest 388 447 34,000  Level Kansas City Center
10:08AM 39.2025 -93.5353 211° Southwest 392 451 34,000  Level Kansas City Center
10:09AM 39.0961 -93.5242 175° South 407 468 34,000  Level Kansas City Center
10:10AM 38.9836 -93.4892 166° South 421 484 34,000  Level Kansas City Center
10:11AM 38.8719 -93.4522 166° South 416 479 34,000 360 Level Kansas City Center
10:12AM 38.7406 -93.4117 166° South 410 472 34,800 480 Climbing Kansas City Center
10:13AM 38.6350 -93.3783 166° South 397 457 35,000 60 Climbing Kansas City Center
10:14AM 38.5283 -93.3425 165° South 395 455 35,000  Level Kansas City Center
10:15AM 38.4200 -93.3092 166° South 398 458 35,000  Level Kansas City Center
10:16AM 38.3122 -93.2739 166° South 400 460 35,000  Level Kansas City Center
10:17AM 38.2042 -93.2392 166° South 400 460 35,000  Level Kansas City Center
10:18AM 38.0933 -93.2050 166° South 406 467 35,000  Level Kansas City Center
10:19AM 37.9611 -93.1644 166° South 408 470 35,000  Level Kansas City Center
10:20AM 37.8503 -93.1297 166° South 410 472 35,000  Level Kansas City Center
10:21AM 37.7406 -93.0953 166° South 408 470 35,000  Level Kansas City Center
10:22AM 37.6289 -93.0614 166° South 412 474 35,000  Level Kansas City Center
10:23AM 37.5172 -93.0244 165° South 414 476 35,000  Level Kansas City Center
10:24AM 37.4061 -92.9919 167° South 411 473 35,000  Level Kansas City Center
10:25AM 37.2725 -92.9492 166° South 412 474 35,000  Level Kansas City Center
10:27AM 37.1122 -92.9008 166° South 411 473 35,000  Level Memphis Center
10:28AM 36.9983 -92.8686 167° South 411 473 35,000  Level Memphis Center
10:29AM 36.8886 -92.8367 167° South 411 473 35,000  Level Memphis Center
10:30AM 36.7789 -92.8022 166° South 411 473 35,000  Level Memphis Center
10:31AM 36.6692 -92.7678 166° South 411 473 35,000  Level Memphis Center
10:32AM 36.5592 -92.7361 167° South 411 473 35,000  Level Memphis Center
10:33AM 36.4389 -92.6992 166° South 411 473 35,000  Level Memphis Center
10:34AM 36.3269 -92.6675 167° South 411 473 35,000  Level Memphis Center
10:35AM 36.2172 -92.6336 166° South 411 473 35,000  Level Memphis Center
10:36AM 36.1053 -92.5997 166° South 411 473 35,000  Level Memphis Center
10:37AM 35.9931 -92.5658 166° South 411 473 35,000  Level Memphis Center
10:38AM 35.8833 -92.5322 166° South 411 473 35,000  Level Memphis Center
10:39AM 35.7711 -92.4986 166° South 411 473 35,000  Level Memphis Center
10:40AM 35.6550 -92.4650 167° South 416 479 35,000  Level Memphis Center
10:41AM 35.5431 -92.4314 166° South 416 479 35,000  Level Memphis Center
10:42AM 35.4267 -92.3953 166° South 416 479 35,000  Level Memphis Center
10:43AM 35.3147 -92.3647 167° South 416 479 35,000 480 Level Memphis Center
10:44AM 35.2006 -92.3314 167° South 416 479 36,000 480 Climbing Memphis Center
10:45AM 35.0903 -92.3011 167° South 416 479 36,000  Level Memphis Center
10:46AM 34.9906 -92.2708 166° South 411 473 36,000  Level Memphis Center
10:47AM 34.8783 -92.2406 168° South 411 473 36,000  Level Memphis Center
10:48AM 34.7683 -92.2053 165° South 411 473 36,000  Level Memphis Center
10:49AM 34.6561 -92.1825 171° South 411 473 36,000  Level Memphis Center
10:50AM 34.5514 -92.2031 189° South 392 451 36,000  Level Memphis Center
10:51AM 34.4447 -92.2233 189° South 392 451 36,000  Level Memphis Center
10:52AM 34.3400 -92.2436 189° South 386 444 36,000  Level Memphis Center
10:53AM 34.2356 -92.2642 189° South 386 444 36,000  Level Memphis Center
10:54AM 34.1328 -92.2819 188° South 386 444 36,000  Level Memphis Center
10:56AM 33.9075 -92.3258 189° South 388 447 36,000  Level Fort Worth Center
10:57AM 33.8061 -92.3469 190° South 388 447 36,000  Level Fort Worth Center
10:58AM 33.7003 -92.3628 187° South 388 447 36,000  Level Fort Worth Center
10:59AM 33.6008 -92.3811 189° South 386 444 36,000  Level Fort Worth Center
11:00AM 33.4931 -92.3997 188° South 386 444 36,000  Level Fort Worth Center
11:01AM 33.3917 -92.4203 190° South 386 444 36,000  Level Fort Worth Center
11:02AM 33.2922 -92.4383 189° South 380 437 36,000  Level Fort Worth Center
11:03AM 33.1992 -92.4561 189° South 363 418 36,000  Level Fort Worth Center
11:04AM 33.0975 -92.4717 187° South 363 418 36,000  Level Fort Worth Center
11:05AM 32.9978 -92.4894 189° South 363 418 36,000  Level Fort Worth Center
11:06AM 32.8983 -92.5075 189° South 363 418 36,000  Level Fort Worth Center
11:08AM 32.6894 -92.5506 190° South 361 415 36,000 -300 Level Houston Center
11:09AM 32.5853 -92.5686 188° South 366 421 35,200 -900 Descending Houston Center
11:10AM 32.4778 -92.5839 187° South 381 438 34,200 -600 Descending Houston Center
11:11AM 32.3750 -92.6025 189° South 378 435 34,000 -120 Descending Houston Center
11:12AM 32.2731 -92.6208 189° South 372 428 34,000  Level Houston Center
11:13AM 32.1758 -92.6394 189° South 357 411 34,000 -60 Level Houston Center
11:14AM 32.0822 -92.6550 188° South 339 390 33,900 -60 Descending Houston Center
11:15AM 31.9881 -92.6383 171° South 338 389 33,900  Level Houston Center
11:16AM 31.8958 -92.6211 171° South 334 384 34,000  Climbing Houston Center
11:17AM 31.8050 -92.6042 171° South 330 380 34,000  Level Houston Center
11:18AM 31.6908 -92.5825 171° South 343 395 34,000  Level Houston Center
11:19AM 31.5931 -92.5644 171° South 351 404 34,000  Level Houston Center
11:21AM 31.4947 -92.5456 171° South 355 409 34,000  Level Houston Center
11:22AM 31.3917 -92.5261 171° South 369 425 34,000  Level Houston Center
11:23AM 31.2867 -92.5058 171° South 377 434 34,000  Level Houston Center
11:24AM 31.1853 -92.5081 181° South 378 435 34,000  Level Houston Center
11:25AM 31.1347 -92.5842 232° Southwest 312 359 34,000  Level Houston Center
11:26AM 31.1539 -92.6733 284° West 298 343 34,000  Level Houston Center
11:27AM 31.2492 -92.7189 338° Northwest 331 381 34,000 -60 Level Houston Center
11:28AM 31.3389 -92.7372 350° North 330 380 33,900  Descending Houston Center
11:29AM 31.4314 -92.7419 358° North 340 391 34,000  Climbing Houston Center
11:30AM 31.4958 -92.6497 51° Northeast 388 447 34,000  Level Houston Center
11:31AM 31.4442 -92.5419 119° Southeast 401 461 34,000  Level Houston Center
11:32AM 31.3589 -92.5644 193° South 362 417 34,000  Level Houston Center
11:33AM 31.3425 -92.6531 258° West 308 354 34,000  Level Houston Center
11:34AM 31.3261 -92.7497 259° West 298 343 34,000  Level Houston Center
11:35AM 31.3042 -92.8625 257° West 297 342 34,000  Level Houston Center
11:36AM 31.2861 -92.9583 258° West 301 346 34,000  Level Houston Center
11:37AM 31.2681 -93.0531 257° West 300 345 34,000  Level Houston Center
11:38AM 31.2500 -93.1442 257° West 292 336 34,000  Level Houston Center
11:39AM 31.2331 -93.2339 258° West 287 330 34,000  Level Houston Center
11:40AM 31.2161 -93.3208 257° West 279 321 34,000  Level Houston Center
11:41AM 31.1994 -93.4061 257° West 273 314 34,000 -60 Level Houston Center
11:42AM 31.1797 -93.5083 257° West 272 313 33,900  Descending Houston Center
11:43AM 31.1636 -93.5922 257° West 268 308 34,000  Climbing Houston Center
11:44AM 31.1472 -93.6769 257° West 269 310 34,000  Level Houston Center
11:45AM 31.1311 -93.7603 257° West 265 305 34,000  Level Houston Center
11:46AM 31.1142 -93.8433 257° West 265 305 34,000  Level Houston Center
11:47AM 31.0986 -93.9261 258° West 264 304 34,000  Level Houston Center
11:48AM 31.0789 -94.0178 256° West 269 310 34,000  Level Houston Center
11:49AM 31.0625 -94.1033 257° West 269 310 34,000  Level Houston Center
11:50AM 31.0458 -94.1889 257° West 270 311 34,000  Level Houston Center
11:51AM 31.0283 -94.2739 257° West 270 311 34,000  Level Houston Center
11:52AM 31.0075 -94.3764 257° West 270 311 34,000 -540 Level Houston Center
11:53AM 30.9903 -94.4628 257° West 272 313 32,900 -1,320 Descending Houston Center
11:54AM 30.9725 -94.5481 256° West 270 311 31,400 -1,500 Descending Houston Center
11:55AM 30.9553 -94.6306 256° West 263 303 29,900 -1,500 Descending Houston Center
11:56AM 30.9381 -94.7128 256° West 260 299 28,400 -1,500 Descending Houston Center
11:57AM 30.9219 -94.7958 257° West 261 300 26,900 -1,200 Descending Houston Center
11:58AM 30.9356 -94.8833 280° West 268 308 26,000 -480 Descending Houston Center
11:59AM 30.9503 -94.9675 282° West 264 304 26,000 -480 Level Houston Center
12:01PM 30.9636 -95.0547 280° West 268 308 25,100 -1,320 Descending Houston Center
12:02PM 30.9592 -95.1436 267° West 284 327 23,400 -2,040 Descending Houston Center
12:03PM 30.9292 -95.2464 251° West 279 321 21,000 -2,100 Descending Houston Center
12:04PM 30.9033 -95.3325 251° West 282 325 19,100 -1,860 Descending Houston Center
12:04PM 30.8922 -95.3714 252° West 285 328 18,300 -1,680 Descending Houston Center
12:05PM 30.8775 -95.4175 250° West 280 322 17,400 -1,860 Descending Houston Center
12:05PM 30.8597 -95.4775 251° West 280 322 16,100 -1,800 Descending Houston Center
12:06PM 30.8517 -95.5022 249° West 279 321 15,600 -1,800 Descending Houston Center
12:06PM 30.8356 -95.5581 251° West 270 311 14,300 -1,500 Descending Houston Center
12:07PM 30.8275 -95.5836 250° West 270 311 14,100 -1,800 Descending Houston Center
12:07PM 30.8111 -95.6364 250° West 260 299 12,500 -2,220 Descending Houston Center
12:08PM 30.8044 -95.6617 253° West 260 299 11,900 -1,800 Descending Houston Center
12:08PM 30.7886 -95.7144 251° West 252 290 10,700 -1,560 Descending Houston Center
12:09PM 30.7814 -95.7367 249° West 250 288 10,300 -1,500 Descending Houston Center
12:09PM 30.7658 -95.7900 251° West 236 272 9,200 -1,380 Descending Houston Center
12:10PM 30.7603 -95.8069 249° West 236 272 8,900 -1,200 Descending Houston Center
12:10PM 30.7442 -95.8558 249° West 216 249 8,000 -900 Descending Houston Center
12:11PM 30.7400 -95.8714 253° West 219 252 8,000  Level Houston Center
12:11PM 30.7178 -95.9147 239° Southwest 192 221 8,000  Level Houston Center
12:12PM 30.7050 -95.9386 238° Southwest 204 235 8,000 -120 Level Houston Center
12:12PM 30.6914 -95.9714 244° Southwest 201 231 7,900 -420 Descending Houston Center
12:13PM 30.6769 -95.9950 235° Southwest 201 231 7,600 -1,200 Descending Houston Center
12:13PM 30.6558 -96.0239 230° Southwest 214 246 6,700 -1,620 Descending Houston Center
12:14PM 30.6400 -96.0456 230° Southwest 207 238 6,000 -1,620 Descending Houston Center
12:14PM 30.6144 -96.0794 229° Southwest 215 247 5,100 -1,380 Descending Houston Center
12:15PM 30.6033 -96.0992 237° Southwest 220 253 4,600 -1,200 Descending Houston Center
12:15PM 30.5761 -96.1444 235° Southwest 238 274 3,900 -840 Descending Houston Center
12:16PM 30.5636 -96.1631 232° Southwest 237 273 3,800 -840 Descending Houston Center
12:16PM 30.5369 -96.2047 233° Southwest 236 272 3,100 -1,080 Descending Houston Center
12:17PM 30.5236 -96.2228 229° Southwest 234 269 2,700 -1,140 Descending Houston Center
12:17PM 30.5092 -96.2708 251° West 226 260 2,000 -840 Descending Houston Center
12:18PM 30.5031 -96.2917 251° West 226 260 1,900 -300 Descending Houston Center
12:19PM 30.4978 -96.3375 262° West 199 229 1,700 -420 Descending Houston Center
12:19PM 30.5167 -96.3458 339° North 190 219 1,500 -660 Descending Houston Center
12:19PM 30.5347 -96.3503 348° North 125 144 1,100 -720 Descending Houston Center
12:20PM 30.5550 -96.3528 354° North 154 177 800 -420 Descending Houston Center
12:21PM 30.5889 -96.3569 354° North 149 171 500 -300 Descending Houston Center
12:23PM 30.5833 -96.3500 325° Northwest  Level FlightAware Approximate